Time;durP1;ratioP1;P1;durP2;ratioP2;P2;SDS_P1;SDS_P2;PMS_P1;PMS_P2;Temp;Humidity;BMP_temperature;BMP_pressure;BME280_temperature;BME280_humidity;BME280_pressure;Samples;Min_cycle;Max_cycle;Signal;HPM_P1;HPM_P2
2022/10/25 00:03:34;;;;;;;1.73;0.65;;;;;;;11.38;100.00;98036.53;18091137;32;20070;-62
2022/10/25 00:13:38;;;;;;;2.33;0.52;;;;;;;11.27;100.00;98030.28;18091208;32;20443;-62
2022/10/25 00:23:41;;;;;;;1.20;0.70;;;;;;;11.19;100.00;98026.16;18089675;32;20055;-61
2022/10/25 00:33:44;;;;;;;1.48;0.60;;;;;;;11.35;100.00;98040.59;18122526;32;20107;-62
2022/10/25 00:43:52;;;;;;;2.37;0.70;;;;;;;11.48;100.00;98042.00;18235867;32;20154;-62
2022/10/25 00:53:55;;;;;;;2.50;0.80;;;;;;;11.46;100.00;98032.50;18235943;32;20415;-62
2022/10/25 01:04:03;;;;;;;1.33;0.75;;;;;;;11.36;100.00;98030.59;18235161;32;20042;-62
2022/10/25 01:14:10;;;;;;;1.45;0.52;;;;;;;11.33;100.00;98034.63;18235013;32;20055;-62
2022/10/25 01:24:32;;;;;;;1.58;0.55;;;;;;;11.24;100.00;98033.53;18234715;32;20106;-62
2022/10/25 01:34:49;;;;;;;0.77;0.50;;;;;;;11.11;100.00;98031.28;18161639;32;20149;-62
2022/10/25 01:44:58;;;;;;;1.40;0.60;;;;;;;10.98;100.00;98016.38;18148941;32;20078;-62
2022/10/25 01:55:01;;;;;;;4.90;0.80;;;;;;;10.77;100.00;98004.63;18160994;32;20051;-63
2022/10/25 02:05:37;;;;;;;4.50;0.73;;;;;;;10.60;100.00;98004.81;18172916;32;20451;-62
2022/10/25 02:15:53;;;;;;;2.40;0.60;;;;;;;10.43;100.00;98005.78;18159813;32;20089;-62
2022/10/25 02:25:58;;;;;;;0.90;0.50;;;;;;;10.25;100.00;98003.47;18159602;32;20111;-62
2022/10/25 02:36:21;;;;;;;3.83;0.87;;;;;;;10.06;100.00;97998.47;18147115;32;20081;-62
2022/10/25 02:46:24;;;;;;;1.07;0.53;;;;;;;9.96;100.00;98003.78;18215636;32;20428;-61
2022/10/25 02:56:27;;;;;;;2.07;0.60;;;;;;;9.89;100.00;98000.50;18239787;32;20095;-62
2022/10/25 03:06:30;;;;;;;2.00;0.70;;;;;;;9.78;100.00;97995.00;18239457;32;20058;-62
2022/10/25 03:16:32;;;;;;;1.43;1.03;;;;;;;9.64;100.00;97997.31;18240027;32;20062;-62
2022/10/25 03:26:35;;;;;;;1.00;0.40;;;;;;;9.49;100.00;97999.88;18239078;32;20050;-63
2022/10/25 03:36:37;;;;;;;1.60;0.73;;;;;;;9.39;100.00;98005.16;18167804;32;20100;-62
2022/10/25 03:46:39;;;;;;;1.43;0.80;;;;;;;9.38;100.00;97996.25;18167343;32;20408;-62
2022/10/25 03:56:42;;;;;;;1.60;0.53;;;;;;;9.36;100.00;98001.09;18165257;32;20074;-62
2022/10/25 04:06:45;;;;;;;1.00;0.70;;;;;;;9.23;100.00;97999.59;18090778;32;20467;-62
2022/10/25 04:16:47;;;;;;;2.83;1.00;;;;;;;9.10;100.00;97999.97;18103345;32;20066;-61
2022/10/25 04:26:50;;;;;;;1.57;1.17;;;;;;;9.03;100.00;97996.66;18102865;32;20112;-61
2022/10/25 04:36:52;;;;;;;3.80;0.67;;;;;;;9.09;100.00;98001.88;18208294;32;20071;-62
2022/10/25 04:46:55;;;;;;;3.77;1.40;;;;;;;9.27;100.00;97999.91;18236296;32;20054;-61
2022/10/25 04:56:58;;;;;;;3.73;2.53;;;;;;;9.45;100.00;98007.66;18235438;32;20060;-62
2022/10/25 05:07:00;;;;;;;6.40;2.70;;;;;;;9.58;100.00;98003.75;18235297;32;20059;-62
2022/10/25 05:17:03;;;;;;;6.57;3.03;;;;;;;9.71;100.00;98016.00;18234982;32;20100;-62
2022/10/25 05:27:07;;;;;;;5.43;3.83;;;;;;;9.83;100.00;98015.84;18234576;32;20069;-62
2022/10/25 05:37:10;;;;;;;6.97;5.27;;;;;;;9.95;100.00;98021.09;18233037;32;20054;-62
2022/10/25 05:47:13;;;;;;;6.40;4.50;;;;;;;10.04;100.00;98024.94;18233705;32;20055;-62
2022/10/25 05:57:16;;;;;;;7.30;6.03;;;;;;;10.18;100.00;98041.50;18232510;32;20054;-62
2022/10/25 06:07:19;;;;;;;9.10;6.10;;;;;;;10.28;100.00;98038.09;18232663;32;20046;-62
2022/10/25 06:17:22;;;;;;;9.40;5.40;;;;;;;10.30;100.00;98035.94;18230194;32;20043;-62
2022/10/25 06:27:27;;;;;;;12.67;7.73;;;;;;;10.35;100.00;98046.84;18231592;32;20058;-62
2022/10/25 06:37:34;;;;;;;13.50;7.12;;;;;;;10.47;100.00;98058.28;18230009;32;20055;-62
2022/10/25 06:47:39;;;;;;;11.70;7.30;;;;;;;10.60;100.00;98070.50;18230885;32;20054;-62
2022/10/25 06:57:59;;;;;;;9.07;6.20;;;;;;;10.66;100.00;98079.47;18229977;32;20054;-62
2022/10/25 07:08:04;;;;;;;10.30;6.68;;;;;;;10.78;100.00;98082.78;18229152;32;20051;-62
2022/10/25 07:18:09;;;;;;;8.70;6.73;;;;;;;10.85;100.00;98088.81;18229311;32;20062;-62
2022/10/25 07:28:14;;;;;;;8.75;5.90;;;;;;;10.91;100.00;98089.66;18228788;32;20103;-62
2022/10/25 07:38:40;;;;;;;;;;;;;;;;;;;;;
2022/10/25 07:49:14;;;;;;;8.30;5.82;;;;;;;11.05;100.00;98108.13;18238533;32;20086;-62
2022/10/25 07:59:20;;;;;;;5.20;4.05;;;;;;;11.06;100.00;98107.88;18237860;32;20054;-62
2022/10/25 08:09:25;;;;;;;4.25;2.75;;;;;;;11.21;100.00;98106.31;18236536;32;20089;-62
2022/10/25 08:19:43;;;;;;;4.72;2.33;;;;;;;11.42;100.00;98109.94;18165540;32;20105;-62
2022/10/25 08:30:29;;;;;;;4.87;2.08;;;;;;;11.67;100.00;98095.66;18091363;32;20502;-62
2022/10/25 08:41:28;;;;;;;3.58;2.20;;;;;;;11.99;100.00;98100.91;18101186;32;20525;-62
2022/10/25 08:52:12;;;;;;;4.27;2.57;;;;;;;12.30;100.00;98089.28;18226196;32;20445;-62
2022/10/25 09:02:26;;;;;;;;;;;;;;;12.53;100.00;98086.00;18226670;32;20075;-62
2022/10/25 09:12:54;;;;;;;4.00;2.20;;;;;;;12.77;100.00;98088.19;18226207;32;19970;-62
2022/10/25 09:23:20;;;;;;;2.08;1.55;;;;;;;12.98;100.00;98080.00;18230055;32;20367;-63
2022/10/25 09:34:00;;;;;;;2.03;1.77;;;;;;;13.22;100.00;98096.47;18234399;32;20058;-62
2022/10/25 09:45:03;;;;;;;5.37;2.28;;;;;;;13.43;100.00;98101.84;18233589;32;20046;-62
2022/10/25 09:55:34;;;;;;;3.85;2.12;;;;;;;13.58;100.00;98087.37;18233177;32;20137;-62
2022/10/25 10:05:54;;;;;;;3.60;2.17;;;;;;;13.63;100.00;98093.59;18232435;32;20038;-62
2022/10/25 10:16:24;;;;;;;5.68;2.97;;;;;;;13.80;100.00;98087.81;18232284;32;20058;-62
2022/10/25 10:26:56;;;;;;;6.35;3.22;;;;;;;13.97;100.00;98081.19;18231568;32;20063;-62
2022/10/25 10:37:22;;;;;;;5.05;3.30;;;;;;;14.18;100.00;98090.84;18231317;32;20354;-62
2022/10/25 10:47:34;;;;;;;3.72;2.78;;;;;;;14.23;100.00;98065.50;18230755;32;20392;-62
2022/10/25 10:57:38;;;;;;;5.28;2.60;;;;;;;14.39;100.00;98067.00;18230063;32;20051;-62
2022/10/25 11:07:55;;;;;;;4.75;3.10;;;;;;;14.63;100.00;98060.81;18234676;32;20050;-62
2022/10/25 11:18:04;;;;;;;5.35;2.83;;;;;;;14.88;100.00;98054.31;18240101;32;20062;-62
2022/10/25 11:28:15;;;;;;;3.03;2.00;;;;;;;15.14;100.00;98050.50;18238417;32;20055;-63
2022/10/25 11:38:40;;;;;;;4.47;2.25;;;;;;;15.44;100.00;98043.84;18239151;32;20072;-62
2022/10/25 11:49:02;;;;;;;2.75;2.25;;;;;;;15.93;100.00;98050.81;18093253;32;20467;-63
2022/10/25 11:59:17;;;;;;;5.07;2.15;;;;;;;16.48;100.00;98035.75;18103444;32;20054;-62
2022/10/25 12:10:47;;;;;;;5.50;2.35;;;;;;;16.69;100.00;98028.03;18103557;32;20095;-63
2022/10/25 12:21:11;;;;;;;3.80;2.03;;;;;;;16.93;100.00;98016.12;18102314;32;20414;-63
2022/10/25 12:31:21;;;;;;;4.22;1.77;;;;;;;17.21;100.00;98003.28;18200054;32;20063;-62
2022/10/25 12:41:34;;;;;;;3.95;1.90;;;;;;;17.62;94.10;97999.66;18236620;32;20050;-62
2022/10/25 12:52:02;;;;;;;5.30;1.58;;;;;;;17.57;93.36;97972.41;18236227;32;20058;-62
2022/10/25 13:02:29;;;;;;;1.77;1.52;;;;;;;17.37;93.79;97972.87;18235161;32;20042;-62
2022/10/25 13:12:36;;;;;;;4.15;2.03;;;;;;;17.21;94.50;97970.50;18235832;32;20058;-62
2022/10/25 13:23:06;;;;;;;2.97;1.67;;;;;;;17.01;93.93;97971.72;18234690;32;20055;-63
2022/10/25 13:33:33;;;;;;;;;;;;;;;;;;;;;
2022/10/25 13:43:59;;;;;;;2.87;1.42;;;;;;;16.72;96.80;97952.91;18233932;32;20077;-62
2022/10/25 13:54:04;;;;;;;3.67;2.00;;;;;;;16.66;94.93;97940.44;18233515;32;20054;-62
2022/10/25 14:04:33;;;;;;;4.07;1.77;;;;;;;16.63;96.94;97933.66;18232311;32;20091;-62
2022/10/25 14:15:27;;;;;;;2.53;1.73;;;;;;;16.60;96.48;97924.16;18232455;32;20062;-62
2022/10/25 14:25:36;;;;;;;5.03;1.75;;;;;;;16.63;95.38;97917.28;18294100;32;20252;-62
2022/10/25 14:35:52;;;;;;;2.47;1.65;;;;;;;16.64;95.33;97912.66;18294201;32;20081;-61
2022/10/25 14:46:14;;;;;;;1.85;1.20;;;;;;;16.66;96.54;97904.94;18304645;32;20073;-62
2022/10/25 14:56:31;;;;;;;2.62;1.48;;;;;;;16.69;95.55;97898.88;18249191;32;20071;-62
2022/10/25 15:06:34;;;;;;;1.75;1.12;;;;;;;16.64;96.05;97899.81;18241140;32;20066;-62
2022/10/25 15:16:39;;;;;;;2.35;1.52;;;;;;;16.56;97.56;97895.84;18240494;32;20438;-62
2022/10/25 15:26:58;;;;;;;3.40;1.80;;;;;;;16.49;97.89;97897.37;18291622;32;20093;-62
2022/10/25 15:37:02;;;;;;;2.35;1.40;;;;;;;16.29;100.00;97880.28;18225987;32;20062;-62
2022/10/25 15:47:29;;;;;;;3.57;1.70;;;;;;;16.04;100.00;97874.19;18238877;32;20058;-62
2022/10/25 15:57:32;;;;;;;3.78;1.50;;;;;;;15.72;100.00;97867.63;18236866;32;20069;-62
2022/10/25 16:07:35;;;;;;;2.33;1.62;;;;;;;15.41;100.00;97859.16;18237991;32;20081;-62
2022/10/25 16:17:38;;;;;;;6.30;1.80;;;;;;;15.13;100.00;97860.94;18236195;32;20054;-62
2022/10/25 16:27:42;;;;;;;2.60;1.52;;;;;;;14.83;100.00;97844.75;18237285;32;20085;-62
2022/10/25 16:37:45;;;;;;;4.85;1.73;;;;;;;14.50;100.00;97836.44;18236692;32;20107;-62
2022/10/25 16:47:55;;;;;;;2.70;1.83;;;;;;;14.24;100.00;97841.41;18164031;32;20097;-62
2022/10/25 16:57:59;;;;;;;2.67;1.60;;;;;;;14.10;100.00;97838.56;18163936;32;20058;-62
2022/10/25 17:08:02;;;;;;;3.12;1.85;;;;;;;13.95;100.00;97833.28;18150658;32;20082;-62
2022/10/25 17:18:05;;;;;;;3.25;1.40;;;;;;;13.77;100.00;97841.03;18174327;32;20136;-62
2022/10/25 17:28:07;;;;;;;2.78;1.52;;;;;;;13.66;100.00;97839.53;18233263;32;20055;-62
2022/10/25 17:38:10;;;;;;;1.90;1.02;;;;;;;13.57;100.00;97828.47;18233465;32;20058;-62
2022/10/25 17:48:13;;;;;;;4.10;1.62;;;;;;;13.36;100.00;97833.25;18234170;32;20058;-62
2022/10/25 17:58:16;;;;;;;2.73;2.00;;;;;;;13.28;100.00;97818.38;18231789;32;20060;-62
2022/10/25 18:08:19;;;;;;;5.28;1.85;;;;;;;13.26;100.00;97804.25;18160711;32;20452;-62
2022/10/25 18:18:22;;;;;;;5.30;2.10;;;;;;;13.30;100.00;97801.78;18146738;32;20079;-62
2022/10/25 18:28:25;;;;;;;3.28;2.10;;;;;;;13.42;100.00;97793.31;18159653;32;20204;-62
2022/10/25 18:38:29;;;;;;;3.67;1.83;;;;;;;13.52;100.00;97788.56;18169714;32;20089;-62
2022/10/25 18:48:32;;;;;;;5.47;1.90;;;;;;;13.54;100.00;97789.09;18231621;32;20443;-62
2022/10/25 18:58:35;;;;;;;6.35;2.15;;;;;;;13.55;100.00;97787.19;18229240;32;20058;-63
2022/10/25 19:08:38;;;;;;;3.45;2.25;;;;;;;13.56;100.00;97786.91;18230285;32;20100;-62
2022/10/25 19:18:41;;;;;;;2.70;1.80;;;;;;;13.56;100.00;97772.53;18157576;32;20147;-62
2022/10/25 19:28:45;;;;;;;4.18;2.30;;;;;;;13.59;100.00;97758.34;18150693;32;20177;-63
2022/10/25 19:38:48;;;;;;;4.07;1.80;;;;;;;13.70;100.00;97750.91;18167566;32;20375;-62
2022/10/25 19:48:51;;;;;;;3.85;2.03;;;;;;;13.59;100.00;97750.22;18177752;32;20069;-62
2022/10/25 19:58:53;;;;;;;3.10;2.03;;;;;;;13.44;100.00;97737.59;18238530;32;20050;-63
2022/10/25 20:08:58;;;;;;;3.45;1.87;;;;;;;13.32;100.00;97739.84;18238045;32;20063;-62
2022/10/25 20:19:01;;;;;;;;;;;;;;;13.16;100.00;97745.44;18236840;32;20455;-62
2022/10/25 20:29:12;;;;;;;4.07;1.98;;;;;;;13.09;100.00;97720.53;18237933;32;19981;-62
2022/10/25 20:39:21;;;;;;;2.70;1.95;;;;;;;13.09;100.00;97731.38;18235191;32;20074;-62
2022/10/25 20:49:24;;;;;;;4.78;2.65;;;;;;;13.22;100.00;97728.00;18223592;32;20105;-62
2022/10/25 20:59:28;;;;;;;3.45;2.67;;;;;;;13.29;100.00;97733.09;18235699;32;20070;-62
2022/10/25 21:09:30;;;;;;;4.85;2.62;;;;;;;13.43;100.00;97736.00;18235825;32;20062;-62
2022/10/25 21:19:33;;;;;;;4.70;2.10;;;;;;;13.59;100.00;97728.47;18235129;32;20117;-63
2022/10/25 21:29:36;;;;;;;3.80;1.80;;;;;;;13.63;100.00;97742.31;18234594;32;20070;-62
2022/10/25 21:39:38;;;;;;;4.25;2.15;;;;;;;13.62;100.00;97732.53;18233426;32;20058;-63
2022/10/25 21:49:40;;;;;;;3.60;2.28;;;;;;;13.63;100.00;97710.50;18233617;32;20062;-62
2022/10/25 21:59:43;;;;;;;4.55;2.10;;;;;;;13.76;100.00;97728.03;18231946;32;20082;-62
2022/10/25 22:09:46;;;;;;;4.65;2.40;;;;;;;13.77;100.00;97732.34;18232929;32;20046;-62
2022/10/25 22:19:48;;;;;;;4.35;2.70;;;;;;;13.89;100.00;97726.50;18232150;32;20054;-62
2022/10/25 22:29:50;;;;;;;5.55;2.97;;;;;;;13.92;100.00;97687.06;18230921;32;20165;-62
2022/10/25 22:39:53;;;;;;;7.30;2.83;;;;;;;13.88;100.00;97698.53;18159168;32;20059;-62
2022/10/25 22:49:55;;;;;;;6.30;2.97;;;;;;;13.85;100.00;97695.56;18158874;32;20086;-62
2022/10/25 22:59:57;;;;;;;4.65;2.78;;;;;;;13.88;100.00;97714.84;18159810;32;20224;-62
2022/10/25 23:10:00;;;;;;;4.90;2.72;;;;;;;13.88;100.00;97709.41;18226288;32;20102;-62
2022/10/25 23:20:03;;;;;;;6.03;2.67;;;;;;;13.87;100.00;97702.34;18240224;32;20421;-61
2022/10/25 23:30:06;;;;;;;9.27;2.50;;;;;;;13.90;100.00;97712.63;18167939;32;20403;-62
2022/10/25 23:40:14;;;;;;;4.65;2.80;;;;;;;13.95;100.00;97710.94;18167848;32;20075;-62
2022/10/25 23:50:16;;;;;;;3.75;2.30;;;;;;;13.80;100.00;97685.59;18167247;32;20066;-62
